Time;durP1;ratioP1;P1;durP2;ratioP2;P2;SDS_P1;SDS_P2;PMS_P1;PMS_P2;Temp;Humidity;BMP_temperature;BMP_pressure;BME280_temperature;BME280_humidity;BME280_pressure;Samples;Min_cycle;Max_cycle;Signal;HPM_P1;HPM_P2
2023/01/22 00:00:22;;;;;;;61.57;29.63;;;-1.00;99.90;;;;;;5043290;28;20243;-68
2023/01/22 00:02:49;;;;;;;60.03;28.80;;;-1.00;99.90;;;;;;5045979;28;20227;-68
2023/01/22 00:05:16;;;;;;;59.00;26.63;;;-1.00;99.90;;;;;;5042169;28;20299;-68
2023/01/22 00:07:43;;;;;;;60.37;26.73;;;-1.00;99.90;;;;;;5045009;28;20315;-68
2023/01/22 00:10:11;;;;;;;67.57;29.00;;;-1.00;99.90;;;;;;5045269;28;20761;-69
2023/01/22 00:12:38;;;;;;;57.87;26.90;;;-1.00;99.90;;;;;;5045558;28;20214;-68
2023/01/22 00:15:05;;;;;;;59.93;28.17;;;-1.00;99.90;;;;;;5029530;28;20212;-68
2023/01/22 00:17:32;;;;;;;59.37;28.53;;;-1.00;99.90;;;;;;5048884;28;20231;-69
2023/01/22 00:19:59;;;;;;;61.70;27.47;;;-1.00;99.90;;;;;;5045899;28;20233;-69
2023/01/22 00:22:25;;;;;;;58.33;26.10;;;-1.00;99.90;;;;;;5026801;28;20559;-68
2023/01/22 00:24:52;;;;;;;55.60;26.03;;;-1.00;99.90;;;;;;5044477;28;20245;-69
2023/01/22 00:27:19;;;;;;;57.73;27.37;;;-1.00;99.90;;;;;;5034053;28;20215;-69
2023/01/22 00:29:45;;;;;;;58.93;25.90;;;-0.90;99.90;;;;;;5041243;28;20302;-67
2023/01/22 00:32:12;;;;;;;52.03;25.67;;;-0.90;99.90;;;;;;5041974;28;20302;-67
2023/01/22 00:34:39;;;;;;;59.03;26.23;;;-0.90;99.90;;;;;;5021171;28;20682;-68
2023/01/22 00:37:05;;;;;;;62.40;26.63;;;-1.00;99.90;;;;;;5044798;28;20233;-68
2023/01/22 00:39:32;;;;;;;56.57;27.30;;;-0.90;99.90;;;;;;5044715;28;20328;-68
2023/01/22 00:41:59;;;;;;;60.00;25.77;;;-1.00;99.90;;;;;;5043769;28;20214;-67
2023/01/22 00:44:25;;;;;;;65.43;26.00;;;-1.00;99.90;;;;;;5045775;28;20243;-67
2023/01/22 00:46:52;;;;;;;56.43;24.57;;;-0.90;99.90;;;;;;5038255;28;20343;-68
2023/01/22 00:49:19;;;;;;;54.77;26.07;;;-0.90;99.90;;;;;;5043414;28;20253;-68
2023/01/22 00:51:46;;;;;;;52.80;25.27;;;-0.90;99.90;;;;;;5044960;28;20221;-67
2023/01/22 00:54:12;;;;;;;60.87;26.60;;;-0.90;99.90;;;;;;5044418;28;20216;-68
2023/01/22 00:56:39;;;;;;;53.40;24.27;;;-0.90;99.90;;;;;;5041445;28;20690;-69
2023/01/22 00:59:09;;;;;;;56.90;24.67;;;-0.90;99.90;;;;;;5044863;28;20281;-67
2023/01/22 01:01:38;;;;;;;56.87;24.10;;;-0.80;99.90;;;;;;5045626;28;20219;-68
2023/01/22 01:04:05;;;;;;;56.53;24.77;;;-0.80;99.90;;;;;;5045815;28;20578;-70
2023/01/22 01:06:31;;;;;;;48.30;24.33;;;-0.90;99.90;;;;;;5046864;28;20296;-68
2023/01/22 01:08:58;;;;;;;48.33;24.17;;;-0.80;99.90;;;;;;5038340;28;20239;-68
2023/01/22 01:11:25;;;;;;;57.57;24.53;;;-0.90;99.90;;;;;;5045022;28;20215;-68
2023/01/22 01:13:52;;;;;;;46.13;23.80;;;-0.90;99.90;;;;;;5043539;28;20294;-69
2023/01/22 01:16:31;;;;;;;50.63;24.97;;;-0.80;99.90;;;;;;5042601;28;20727;-68
2023/01/22 01:19:03;;;;;;;51.10;24.27;;;-0.80;99.90;;;;;;5039067;28;20751;-67
2023/01/22 01:21:30;;;;;;;48.00;22.03;;;-0.80;99.90;;;;;;5039684;28;20286;-69
2023/01/22 01:23:58;;;;;;;47.07;23.27;;;-0.90;99.90;;;;;;5038807;28;20219;-68
2023/01/22 01:26:25;;;;;;;44.00;23.17;;;-0.90;99.90;;;;;;5043732;28;20609;-68
2023/01/22 01:28:52;;;;;;;49.20;24.23;;;-0.80;99.90;;;;;;5041197;28;20206;-68
2023/01/22 01:31:21;;;;;;;43.43;22.50;;;-0.80;99.90;;;;;;5042123;28;20207;-69
2023/01/22 01:33:48;;;;;;;45.03;23.00;;;-0.80;99.90;;;;;;5039924;28;20672;-68
2023/01/22 01:36:22;;;;;;;43.57;22.67;;;-0.80;99.90;;;;;;5043494;28;20215;-67
2023/01/22 01:39:08;;;;;;;42.60;21.40;;;-0.80;99.90;;;;;;5041703;28;20278;-67
2023/01/22 01:41:35;;;;;;;47.57;22.87;;;-0.90;99.90;;;;;;5043560;28;20685;-68
2023/01/22 01:44:11;;;;;;;46.13;21.63;;;-0.80;99.90;;;;;;5039407;28;20266;-69
2023/01/22 01:47:04;;;;;;;42.83;23.37;;;-0.90;99.90;;;;;;5040529;28;20651;-68
2023/01/22 01:49:37;;;;;;;45.50;23.07;;;-0.90;99.90;;;;;;5045975;28;20199;-68
2023/01/22 01:52:08;;;;;;;41.77;21.60;;;-0.90;99.90;;;;;;5044757;28;20476;-67
2023/01/22 01:54:37;;;;;;;44.40;21.80;;;-0.90;99.90;;;;;;5039622;28;20667;-67
2023/01/22 01:57:08;;;;;;;43.23;22.23;;;-0.90;99.90;;;;;;5041574;28;20630;-68
2023/01/22 01:59:36;;;;;;;39.97;21.07;;;-1.00;99.90;;;;;;5042602;28;20340;-68
2023/01/22 02:02:03;;;;;;;43.67;22.00;;;-0.90;99.90;;;;;;5043339;28;20224;-69
2023/01/22 02:04:30;;;;;;;43.77;21.23;;;-0.90;99.90;;;;;;5041191;28;20218;-68
2023/01/22 02:06:57;;;;;;;44.37;21.47;;;-0.90;99.90;;;;;;5026630;28;20244;-68
2023/01/22 02:09:23;;;;;;;37.93;19.50;;;-0.90;99.90;;;;;;5014426;28;20230;-69
2023/01/22 02:11:50;;;;;;;40.03;20.47;;;-1.00;99.90;;;;;;5044154;28;20209;-67
2023/01/22 02:14:25;;;;;;;35.97;19.93;;;-0.90;99.90;;;;;;5042562;28;20463;-68
2023/01/22 02:17:05;;;;;;;41.50;20.60;;;-0.90;99.90;;;;;;5040222;28;20232;-68
2023/01/22 02:19:31;;;;;;;41.87;20.37;;;-0.90;99.90;;;;;;5044148;28;20240;-69
2023/01/22 02:21:58;;;;;;;37.80;20.50;;;-0.90;99.90;;;;;;5040741;28;20333;-68
2023/01/22 02:24:29;;;;;;;40.33;20.00;;;-0.90;99.90;;;;;;5045643;28;20574;-69
2023/01/22 02:26:55;;;;;;;42.57;19.07;;;-0.90;99.90;;;;;;5043805;28;20290;-69
2023/01/22 02:29:25;;;;;;;41.83;19.93;;;-0.90;99.90;;;;;;5037970;28;20209;-68
2023/01/22 02:31:52;;;;;;;38.40;18.90;;;-0.90;99.90;;;;;;5040192;28;20305;-69
2023/01/22 02:34:23;;;;;;;40.00;19.07;;;-0.90;99.90;;;;;;5035802;28;20212;-69
2023/01/22 02:36:50;;;;;;;33.83;17.83;;;-0.90;99.90;;;;;;5043026;28;20240;-68
2023/01/22 02:39:17;;;;;;;39.83;20.77;;;-0.80;99.90;;;;;;5044912;28;20230;-68
2023/01/22 02:41:44;;;;;;;39.43;20.03;;;-0.90;99.90;;;;;;5029668;28;20745;-68
2023/01/22 02:44:11;;;;;;;36.60;19.33;;;-0.80;99.90;;;;;;5043987;28;20262;-68
2023/01/22 02:46:37;;;;;;;39.77;19.60;;;-0.90;99.90;;;;;;5034463;28;20226;-68
2023/01/22 02:49:05;;;;;;;44.10;20.60;;;-0.90;99.90;;;;;;5044240;28;20207;-69
2023/01/22 02:51:31;;;;;;;37.33;18.23;;;-0.90;99.90;;;;;;5037904;28;20207;-68
2023/01/22 02:53:58;;;;;;;35.40;18.27;;;-0.90;99.90;;;;;;5039952;28;20257;-68
2023/01/22 02:56:25;;;;;;;40.10;18.50;;;-0.90;99.90;;;;;;5045343;28;20210;-67
2023/01/22 02:58:52;;;;;;;37.37;18.37;;;-1.00;99.90;;;;;;5048617;28;20208;-68
2023/01/22 03:01:21;;;;;;;39.23;17.93;;;-0.90;99.90;;;;;;5046931;28;20209;-67
2023/01/22 03:03:51;;;;;;;40.43;18.73;;;-1.00;99.90;;;;;;5046822;28;20236;-69
2023/01/22 03:06:23;;;;;;;36.00;18.10;;;-1.00;99.90;;;;;;5043609;28;20201;-68
2023/01/22 03:08:53;;;;;;;37.40;18.37;;;-1.00;99.90;;;;;;5043308;28;20626;-68
2023/01/22 03:11:21;;;;;;;34.60;18.37;;;-1.00;99.90;;;;;;5048492;28;20199;-68
2023/01/22 03:22:05;;;;;;;37.57;17.83;;;-1.10;99.90;;;;;;5044645;28;20216;-68
2023/01/22 03:24:31;;;;;;;40.93;18.27;;;-1.10;99.90;;;;;;5025704;28;20210;-67
2023/01/22 03:26:58;;;;;;;41.10;18.33;;;-1.10;99.90;;;;;;5040905;28;20211;-68
2023/01/22 03:29:25;;;;;;;41.30;19.30;;;-1.10;99.90;;;;;;5045510;28;20739;-69
2023/01/22 03:31:51;;;;;;;42.23;19.03;;;-1.00;99.90;;;;;;5046972;28;20591;-68
2023/01/22 03:34:20;;;;;;;40.53;18.60;;;-1.00;99.90;;;;;;5045319;28;20930;-68
2023/01/22 03:36:47;;;;;;;45.80;19.07;;;-0.90;99.90;;;;;;5047138;28;20661;-68
2023/01/22 03:39:13;;;;;;;44.87;19.27;;;-0.90;99.90;;;;;;5041379;28;20207;-68
2023/01/22 03:41:40;;;;;;;42.20;18.87;;;-0.80;99.90;;;;;;5048480;28;20706;-68
2023/01/22 03:44:10;;;;;;;37.63;19.13;;;-0.80;99.90;;;;;;5045432;28;20205;-68
2023/01/22 03:46:39;;;;;;;43.40;18.57;;;-0.70;99.90;;;;;;5044193;28;20228;-68
2023/01/22 03:49:07;;;;;;;40.97;18.93;;;-0.60;99.90;;;;;;5043637;28;20203;-68
2023/01/22 03:51:34;;;;;;;41.63;18.63;;;-0.60;99.90;;;;;;5042616;28;20220;-68
2023/01/22 03:54:01;;;;;;;37.60;18.20;;;-0.50;99.90;;;;;;5044574;28;20300;-68
2023/01/22 03:56:28;;;;;;;41.20;17.93;;;-0.50;99.90;;;;;;5045397;28;20542;-68
2023/01/22 03:58:55;;;;;;;42.87;18.10;;;-0.40;99.90;;;;;;5043815;28;20233;-68
2023/01/22 04:01:24;;;;;;;43.90;18.20;;;-0.40;99.90;;;;;;5041376;28;20232;-68
2023/01/22 04:03:52;;;;;;;37.30;17.60;;;-0.30;99.90;;;;;;5027995;28;20271;-68
2023/01/22 04:06:20;;;;;;;36.70;17.83;;;-0.30;99.90;;;;;;5046903;28;20224;-68
2023/01/22 04:08:50;;;;;;;40.63;18.97;;;-0.30;99.90;;;;;;5045108;28;20206;-68
2023/01/22 04:11:17;;;;;;;40.33;18.70;;;-0.30;99.90;;;;;;5042416;28;20628;-69
2023/01/22 04:13:44;;;;;;;39.67;17.83;;;-0.20;99.90;;;;;;5038747;28;20296;-68
2023/01/22 04:16:12;;;;;;;40.30;18.80;;;-0.20;99.90;;;;;;5046056;28;20730;-69
2023/01/22 04:18:40;;;;;;;37.13;17.70;;;-0.20;99.90;;;;;;5048111;28;20223;-68
2023/01/22 04:21:07;;;;;;;37.03;18.50;;;-0.10;99.90;;;;;;5040340;28;20597;-68
2023/01/22 04:23:34;;;;;;;36.20;16.90;;;-0.10;99.90;;;;;;5029118;28;20235;-68
2023/01/22 04:26:01;;;;;;;38.43;18.30;;;-0.10;99.90;;;;;;5038794;28;20206;-67
2023/01/22 04:28:27;;;;;;;32.37;16.57;;;-0.10;99.90;;;;;;5046552;28;20205;-68
2023/01/22 04:30:55;;;;;;;38.00;17.67;;;-0.10;99.90;;;;;;5045785;28;20280;-68
2023/01/22 04:33:21;;;;;;;36.13;17.03;;;0.00;99.90;;;;;;5046254;28;20248;-68
2023/01/22 04:35:50;;;;;;;34.93;16.77;;;0.00;99.90;;;;;;5040239;28;20561;-68
2023/01/22 04:38:17;;;;;;;35.07;16.90;;;0.00;99.90;;;;;;5044119;28;20203;-68
2023/01/22 04:40:44;;;;;;;30.63;15.53;;;0.10;99.90;;;;;;5042034;28;20240;-68
2023/01/22 04:43:11;;;;;;;34.30;16.73;;;0.10;99.90;;;;;;5046013;28;20287;-68
2023/01/22 04:45:37;;;;;;;34.87;16.30;;;0.00;99.90;;;;;;5047607;28;20214;-68
2023/01/22 04:48:04;;;;;;;31.03;15.30;;;0.10;99.90;;;;;;5042131;28;20316;-68
2023/01/22 04:50:33;;;;;;;35.43;15.93;;;0.10;99.90;;;;;;5045604;28;20259;-68
2023/01/22 04:53:00;;;;;;;32.47;15.67;;;0.10;99.90;;;;;;5042218;28;20300;-69
2023/01/22 04:55:28;;;;;;;34.77;15.20;;;0.10;99.90;;;;;;5044969;28;20640;-68
2023/01/22 04:57:56;;;;;;;35.03;16.40;;;0.20;99.90;;;;;;5047670;28;20244;-68
2023/01/22 05:00:23;;;;;;;31.27;16.33;;;0.20;99.90;;;;;;5038393;28;20228;-68
2023/01/22 05:02:55;;;;;;;31.23;15.57;;;0.20;99.90;;;;;;5047415;28;20429;-67
2023/01/22 05:05:22;;;;;;;26.60;14.60;;;0.20;99.90;;;;;;5045170;28;20713;-68
2023/01/22 05:07:49;;;;;;;35.97;15.17;;;0.20;99.90;;;;;;5042297;28;20300;-67
2023/01/22 05:10:16;;;;;;;29.30;14.80;;;0.30;99.90;;;;;;5042315;28;20210;-67
2023/01/22 05:12:43;;;;;;;26.70;13.83;;;0.30;99.90;;;;;;5042013;28;20214;-67
2023/01/22 05:15:10;;;;;;;27.40;14.07;;;0.30;99.90;;;;;;5039713;28;20615;-69
2023/01/22 05:17:50;;;;;;;30.37;14.90;;;0.40;99.90;;;;;;5047321;28;20774;-69
2023/01/22 05:20:16;;;;;;;30.17;15.00;;;0.30;99.90;;;;;;5041935;28;20260;-68
2023/01/22 05:22:44;;;;;;;31.07;14.93;;;0.40;99.90;;;;;;5040051;28;20216;-67
2023/01/22 05:25:11;;;;;;;27.57;14.30;;;0.40;99.90;;;;;;5043862;28;20657;-68
2023/01/22 05:27:37;;;;;;;25.83;13.43;;;0.40;99.90;;;;;;5028636;28;20293;-67
2023/01/22 05:30:05;;;;;;;27.40;13.67;;;0.50;99.90;;;;;;5037150;28;20668;-67
2023/01/22 05:32:32;;;;;;;25.83;13.73;;;0.50;99.90;;;;;;5043465;28;20307;-68
2023/01/22 05:34:59;;;;;;;28.80;14.83;;;0.50;99.90;;;;;;5039591;28;20210;-68
2023/01/22 05:37:25;;;;;;;26.50;13.13;;;0.50;99.90;;;;;;5040702;28;20743;-68
2023/01/22 05:39:52;;;;;;;26.03;13.20;;;0.50;99.90;;;;;;5048071;28;20771;-68
2023/01/22 05:42:19;;;;;;;27.93;13.73;;;0.50;99.90;;;;;;5041110;28;20210;-69
2023/01/22 05:44:47;;;;;;;26.93;13.20;;;0.50;99.90;;;;;;5046801;28;20335;-69
2023/01/22 05:47:14;;;;;;;26.27;12.97;;;0.50;99.90;;;;;;5022410;28;20335;-67
2023/01/22 05:49:40;;;;;;;25.87;12.80;;;0.50;99.90;;;;;;5028135;28;20215;-67
2023/01/22 05:52:10;;;;;;;22.70;12.23;;;0.60;99.90;;;;;;5025272;28;20299;-67
2023/01/22 05:54:38;;;;;;;23.63;13.13;;;0.60;99.90;;;;;;5030201;28;20236;-68
2023/01/22 05:57:05;;;;;;;22.67;12.13;;;0.60;99.90;;;;;;5042009;28;20703;-68
2023/01/22 05:59:32;;;;;;;25.43;13.70;;;0.60;99.90;;;;;;5042057;28;20230;-68
2023/01/22 06:01:59;;;;;;;21.90;13.10;;;0.60;99.90;;;;;;5042863;28;20234;-68
2023/01/22 06:04:27;;;;;;;27.80;12.80;;;0.70;99.90;;;;;;5034468;28;20296;-68
2023/01/22 06:06:53;;;;;;;20.20;11.70;;;0.70;99.90;;;;;;5043104;28;20393;-68
2023/01/22 06:09:20;;;;;;;20.93;11.83;;;0.70;99.90;;;;;;5025185;28;20518;-68
2023/01/22 06:11:47;;;;;;;20.57;12.03;;;0.70;99.90;;;;;;5042418;28;20212;-68
2023/01/22 06:14:13;;;;;;;21.63;13.07;;;0.70;99.90;;;;;;5044109;28;20784;-68
2023/01/22 06:16:40;;;;;;;24.50;12.40;;;0.70;99.90;;;;;;5019550;28;20307;-68
2023/01/22 06:19:07;;;;;;;23.23;11.97;;;0.60;99.90;;;;;;5044185;28;20753;-68
2023/01/22 06:21:34;;;;;;;25.27;13.13;;;0.70;99.90;;;;;;5036522;28;20673;-67
2023/01/22 06:24:01;;;;;;;21.03;11.23;;;0.70;99.90;;;;;;5044429;28;20205;-68
2023/01/22 06:26:27;;;;;;;19.73;11.23;;;0.70;99.90;;;;;;5042383;28;20299;-67
2023/01/22 06:28:54;;;;;;;20.90;11.47;;;0.70;99.90;;;;;;5043667;28;20206;-69
2023/01/22 06:31:21;;;;;;;24.37;12.20;;;0.70;99.90;;;;;;5038482;28;20205;-68
2023/01/22 06:33:48;;;;;;;23.90;12.77;;;0.80;99.90;;;;;;5044552;28;20667;-68
2023/01/22 06:36:15;;;;;;;23.03;12.73;;;0.80;99.90;;;;;;5045913;28;20206;-69
2023/01/22 06:38:41;;;;;;;24.40;13.17;;;0.70;99.90;;;;;;5046352;28;20332;-67
2023/01/22 06:41:09;;;;;;;19.13;12.43;;;0.80;99.90;;;;;;5048653;28;20241;-67
2023/01/22 06:43:39;;;;;;;17.53;11.33;;;0.80;99.90;;;;;;5039047;28;20244;-68
2023/01/22 06:46:05;;;;;;;21.00;12.43;;;0.80;99.90;;;;;;5049061;28;20647;-68
2023/01/22 06:48:32;;;;;;;22.03;11.20;;;0.80;99.90;;;;;;5047643;28;20620;-68
2023/01/22 06:50:59;;;;;;;20.40;11.87;;;0.80;99.90;;;;;;5042404;28;20228;-68
2023/01/22 06:53:26;;;;;;;22.17;12.40;;;0.80;99.90;;;;;;5043924;28;20611;-68
2023/01/22 06:55:53;;;;;;;19.87;12.70;;;0.90;99.90;;;;;;5042373;28;20202;-68
2023/01/22 06:58:20;;;;;;;20.80;11.70;;;0.80;99.90;;;;;;5050394;28;20546;-67
2023/01/22 07:00:47;;;;;;;18.63;11.53;;;0.90;99.90;;;;;;5029583;28;20230;-68
2023/01/22 07:03:14;;;;;;;20.53;11.60;;;0.90;99.90;;;;;;5042498;28;20304;-68
2023/01/22 07:05:41;;;;;;;21.47;12.00;;;0.80;99.90;;;;;;5041968;28;20287;-68
2023/01/22 07:08:13;;;;;;;21.73;11.30;;;0.90;99.90;;;;;;5043811;28;20245;-68
2023/01/22 07:10:40;;;;;;;20.93;11.53;;;0.80;99.90;;;;;;5047707;28;20213;-68
2023/01/22 07:13:09;;;;;;;16.37;10.17;;;0.80;99.90;;;;;;5047456;28;20204;-68
2023/01/22 07:15:35;;;;;;;19.87;11.10;;;0.80;99.90;;;;;;5047498;28;20201;-69
2023/01/22 07:18:02;;;;;;;19.63;11.03;;;0.80;99.90;;;;;;5040460;28;20226;-68
2023/01/22 07:20:29;;;;;;;16.83;10.67;;;0.80;99.90;;;;;;5047602;28;20229;-68
2023/01/22 07:22:57;;;;;;;16.73;10.33;;;0.80;99.90;;;;;;5044485;28;20326;-68
2023/01/22 07:25:26;;;;;;;17.73;11.03;;;0.80;99.90;;;;;;5029364;28;20672;-68
2023/01/22 07:28:03;;;;;;;19.83;11.17;;;0.80;99.90;;;;;;5040876;28;20195;-69
2023/01/22 07:30:30;;;;;;;18.33;11.40;;;0.80;99.90;;;;;;5045148;28;20629;-69
2023/01/22 07:33:01;;;;;;;17.67;10.37;;;0.80;99.90;;;;;;5045521;28;20245;-68
2023/01/22 07:35:28;;;;;;;16.47;10.43;;;0.70;99.90;;;;;;5045582;28;20416;-68
2023/01/22 07:37:57;;;;;;;15.10;10.57;;;0.70;99.90;;;;;;5046381;28;20197;-67
2023/01/22 07:40:24;;;;;;;19.43;11.23;;;0.70;99.90;;;;;;5056004;28;20260;-67
2023/01/22 07:42:53;;;;;;;18.13;10.30;;;0.70;99.90;;;;;;5045820;28;20669;-68
2023/01/22 07:45:20;;;;;;;17.97;10.10;;;0.70;99.90;;;;;;5047338;28;20204;-69
2023/01/22 07:47:53;;;;;;;16.97;10.50;;;0.60;99.90;;;;;;5044553;28;20312;-68
2023/01/22 07:50:28;;;;;;;15.33;9.93;;;0.60;99.90;;;;;;5042827;28;20205;-68
2023/01/22 07:52:55;;;;;;;20.67;10.73;;;0.60;99.90;;;;;;5040627;28;20311;-68
2023/01/22 07:55:22;;;;;;;16.33;10.47;;;0.60;99.90;;;;;;5045497;28;20217;-67
2023/01/22 07:57:57;;;;;;;16.50;11.20;;;0.60;99.90;;;;;;5048032;28;20220;-69
2023/01/22 08:00:24;;;;;;;20.73;11.73;;;0.60;99.90;;;;;;5038185;28;20207;-69
2023/01/22 08:02:50;;;;;;;19.13;10.73;;;0.60;99.90;;;;;;5047882;28;20316;-68
2023/01/22 08:05:17;;;;;;;18.37;11.47;;;0.60;99.90;;;;;;5042974;28;20217;-68
2023/01/22 08:07:44;;;;;;;17.67;10.33;;;0.60;99.90;;;;;;5047610;28;20220;-68
2023/01/22 08:10:10;;;;;;;15.90;10.83;;;0.60;99.90;;;;;;5047963;28;20210;-68
2023/01/22 08:12:40;;;;;;;15.87;10.83;;;0.60;99.90;;;;;;5042456;28;20211;-69
2023/01/22 08:15:07;;;;;;;16.90;11.30;;;0.70;99.90;;;;;;5045106;28;20209;-69
2023/01/22 08:17:34;;;;;;;17.87;11.20;;;0.70;99.90;;;;;;5047186;28;20690;-69
2023/01/22 08:20:01;;;;;;;16.47;10.23;;;0.70;99.90;;;;;;5049505;28;20232;-68
2023/01/22 08:22:28;;;;;;;17.37;10.30;;;0.80;99.90;;;;;;5041610;28;20571;-68
2023/01/22 08:24:54;;;;;;;16.60;10.73;;;0.80;99.90;;;;;;5029696;28;20212;-67
2023/01/22 08:27:21;;;;;;;18.67;10.50;;;0.80;99.90;;;;;;5044450;28;20249;-67
2023/01/22 08:29:51;;;;;;;18.17;11.13;;;0.80;99.90;;;;;;5043574;28;20650;-68
2023/01/22 08:32:18;;;;;;;18.53;10.23;;;0.80;99.90;;;;;;5050318;28;20225;-68
2023/01/22 08:34:45;;;;;;;21.63;10.67;;;0.80;99.90;;;;;;5040590;28;20213;-69
2023/01/22 08:37:12;;;;;;;23.33;11.33;;;0.80;99.90;;;;;;5042400;28;20237;-68
2023/01/22 08:39:38;;;;;;;21.33;10.53;;;0.90;99.90;;;;;;5045868;28;20241;-68
2023/01/22 08:42:05;;;;;;;19.27;10.50;;;0.90;99.90;;;;;;5042944;28;20230;-68
2023/01/22 08:44:32;;;;;;;18.73;11.20;;;0.90;99.90;;;;;;5048150;28;20205;-67
2023/01/22 08:46:58;;;;;;;18.87;11.20;;;0.90;99.90;;;;;;5037929;28;20214;-67
2023/01/22 08:49:25;;;;;;;20.13;11.10;;;0.90;99.90;;;;;;5031911;28;20217;-68
2023/01/22 08:51:52;;;;;;;20.73;11.87;;;0.90;99.90;;;;;;5043857;28;20248;-68
2023/01/22 08:54:19;;;;;;;21.27;11.80;;;0.90;99.90;;;;;;5027555;28;20297;-68
2023/01/22 08:56:46;;;;;;;17.50;11.50;;;0.90;99.90;;;;;;5042528;28;20208;-68
2023/01/22 08:59:14;;;;;;;18.80;11.23;;;1.00;99.90;;;;;;5044066;28;20209;-68
2023/01/22 09:01:41;;;;;;;18.97;11.70;;;1.00;99.90;;;;;;5041264;28;20681;-68
2023/01/22 09:04:09;;;;;;;21.90;11.60;;;1.10;99.90;;;;;;5045812;28;20213;-68
2023/01/22 09:06:37;;;;;;;21.50;11.73;;;1.10;99.90;;;;;;5047253;28;20213;-68
2023/01/22 09:09:05;;;;;;;19.17;11.30;;;1.20;99.90;;;;;;5024841;28;20288;-68
2023/01/22 09:11:32;;;;;;;23.07;11.53;;;1.20;99.90;;;;;;5044069;28;20209;-68
2023/01/22 09:13:59;;;;;;;15.77;10.07;;;1.30;99.90;;;;;;5042301;28;20212;-69
2023/01/22 09:16:26;;;;;;;16.97;10.90;;;1.30;99.90;;;;;;5032897;28;20297;-69
2023/01/22 09:18:53;;;;;;;18.20;11.90;;;1.30;99.90;;;;;;5044714;28;20203;-68
2023/01/22 09:21:20;;;;;;;18.90;10.47;;;1.30;99.90;;;;;;5036385;28;20308;-66
2023/01/22 09:23:47;;;;;;;17.60;11.27;;;1.30;99.90;;;;;;5046936;28;20729;-69
2023/01/22 09:26:14;;;;;;;16.97;9.87;;;1.30;99.90;;;;;;5024770;28;20256;-68
2023/01/22 09:28:41;;;;;;;17.90;10.37;;;1.40;99.90;;;;;;5041954;28;20215;-68
2023/01/22 09:31:10;;;;;;;17.40;10.27;;;1.40;99.90;;;;;;5040932;28;20210;-68
2023/01/22 09:33:37;;;;;;;15.93;10.30;;;1.40;99.90;;;;;;5034079;28;20656;-68
2023/01/22 09:36:13;;;;;;;18.57;10.50;;;1.40;99.90;;;;;;5041882;28;20239;-69
2023/01/22 09:38:40;;;;;;;16.37;10.57;;;1.40;99.90;;;;;;5043530;28;20292;-68
2023/01/22 09:41:18;;;;;;;16.80;9.57;;;1.40;99.90;;;;;;5044708;28;20739;-68
2023/01/22 09:43:48;;;;;;;17.60;10.23;;;1.40;99.90;;;;;;5037974;28;20567;-68
2023/01/22 09:46:23;;;;;;;14.60;9.73;;;1.50;99.90;;;;;;5027140;28;20260;-67
2023/01/22 09:48:55;;;;;;;17.90;10.00;;;1.50;99.90;;;;;;5041120;28;20555;-68
2023/01/22 09:51:23;;;;;;;18.17;10.10;;;1.50;99.90;;;;;;5039885;28;20210;-68
2023/01/22 09:53:55;;;;;;;16.23;9.80;;;1.50;99.90;;;;;;5042946;28;20297;-68
2023/01/22 09:56:32;;;;;;;15.13;9.27;;;1.60;99.90;;;;;;5038409;28;20669;-68
2023/01/22 09:59:02;;;;;;;14.73;10.10;;;1.60;99.90;;;;;;5043081;28;20590;-67
2023/01/22 10:01:29;;;;;;;16.77;10.00;;;1.60;99.90;;;;;;5044595;28;20321;-67
2023/01/22 10:04:02;;;;;;;17.70;10.73;;;1.60;99.90;;;;;;5022369;28;20228;-68
2023/01/22 10:06:29;;;;;;;17.23;10.40;;;1.60;99.90;;;;;;5043273;28;20302;-67
2023/01/22 10:09:15;;;;;;;21.03;9.97;;;1.60;99.90;;;;;;5039233;28;20215;-67
2023/01/22 10:11:48;;;;;;;22.50;10.73;;;1.60;99.90;;;;;;5043541;28;20298;-67
2023/01/22 10:14:17;;;;;;;16.93;10.10;;;1.60;99.90;;;;;;5045178;28;20218;-67
2023/01/22 10:16:47;;;;;;;15.20;9.77;;;1.60;99.90;;;;;;5024272;28;20317;-68
2023/01/22 10:19:26;;;;;;;16.30;10.33;;;1.60;99.90;;;;;;5045356;28;20233;-67
2023/01/22 10:21:59;;;;;;;14.80;10.27;;;1.70;99.90;;;;;;5041114;28;20666;-68
2023/01/22 10:24:27;;;;;;;15.83;9.97;;;1.70;99.90;;;;;;5046642;28;20298;-67
2023/01/22 10:26:57;;;;;;;17.90;10.83;;;1.70;99.90;;;;;;5045413;28;20205;-67
2023/01/22 10:29:32;;;;;;;15.60;10.13;;;1.70;99.90;;;;;;5041479;28;20344;-69
2023/01/22 10:32:26;;;;;;;16.53;10.43;;;1.70;99.90;;;;;;5040186;28;20334;-67
2023/01/22 10:35:03;;;;;;;22.60;10.87;;;1.70;99.90;;;;;;5038230;28;20550;-68
2023/01/22 10:37:40;;;;;;;18.30;10.87;;;1.80;99.90;;;;;;5042018;28;20306;-68
2023/01/22 10:40:25;;;;;;;20.60;10.60;;;1.80;99.90;;;;;;5044386;28;20726;-68
2023/01/22 10:43:12;;;;;;;14.27;9.53;;;1.90;99.90;;;;;;5042312;28;20236;-68
2023/01/22 10:46:04;;;;;;;14.80;10.07;;;1.90;99.90;;;;;;5045863;28;20233;-68
2023/01/22 10:48:32;;;;;;;17.07;10.27;;;1.90;99.90;;;;;;5037151;28;20743;-68
2023/01/22 10:51:25;;;;;;;15.57;9.27;;;1.90;99.90;;;;;;5047579;28;20218;-68
2023/01/22 10:53:55;;;;;;;14.87;10.43;;;2.00;99.90;;;;;;5046430;28;20223;-68
2023/01/22 10:56:28;;;;;;;15.73;10.10;;;2.00;99.90;;;;;;5044293;28;20225;-68
2023/01/22 10:58:56;;;;;;;16.00;10.23;;;2.00;99.90;;;;;;5044411;28;20220;-68
2023/01/22 11:01:27;;;;;;;15.93;10.37;;;2.00;99.90;;;;;;5043119;28;20234;-68
2023/01/22 11:03:54;;;;;;;16.13;10.40;;;2.00;99.90;;;;;;5041699;28;20207;-68
2023/01/22 11:06:33;;;;;;;17.20;10.47;;;2.00;99.90;;;;;;5032242;28;20201;-68
2023/01/22 11:09:07;;;;;;;13.33;9.13;;;2.00;99.90;;;;;;5042751;28;20210;-68
2023/01/22 11:11:38;;;;;;;17.03;10.37;;;2.10;99.90;;;;;;5039059;28;20296;-68
2023/01/22 11:14:23;;;;;;;15.10;9.43;;;2.10;99.90;;;;;;5043239;28;20212;-67
2023/01/22 11:16:55;;;;;;;18.63;10.10;;;2.10;99.90;;;;;;5040269;28;20330;-68
2023/01/22 11:19:26;;;;;;;17.17;10.20;;;2.00;99.90;;;;;;5044797;28;20290;-67
2023/01/22 11:22:13;;;;;;;16.80;10.40;;;2.10;99.90;;;;;;5047844;28;20271;-68
2023/01/22 11:24:46;;;;;;;16.67;9.50;;;2.10;99.90;;;;;;5028087;28;20668;-67
2023/01/22 11:27:35;;;;;;;16.37;10.10;;;2.10;99.90;;;;;;5027758;28;20265;-68
2023/01/22 11:30:23;;;;;;;17.07;9.50;;;2.10;99.90;;;;;;5049733;28;20298;-67
2023/01/22 11:33:02;;;;;;;16.73;10.77;;;2.10;99.90;;;;;;5051783;28;20274;-68
2023/01/22 11:35:55;;;;;;;17.67;10.73;;;2.10;99.90;;;;;;5046976;28;20215;-67
2023/01/22 11:39:03;;;;;;;17.10;10.40;;;2.10;99.90;;;;;;5046496;28;20207;-67
2023/01/22 11:42:12;;;;;;;19.07;11.47;;;2.10;99.90;;;;;;5032204;28;20684;-69
2023/01/22 11:44:47;;;;;;;18.23;10.93;;;2.10;99.90;;;;;;5027808;28;20293;-68
2023/01/22 11:47:40;;;;;;;17.13;10.77;;;2.10;99.90;;;;;;5029798;28;20247;-68
2023/01/22 11:50:54;;;;;;;17.47;10.50;;;2.10;99.90;;;;;;5050900;28;20233;-68
2023/01/22 11:53:39;;;;;;;14.87;10.30;;;2.10;99.90;;;;;;5029994;28;20296;-68
2023/01/22 11:56:21;;;;;;;17.37;10.40;;;2.10;99.90;;;;;;5046618;28;20208;-66
2023/01/22 11:59:12;;;;;;;17.37;10.70;;;2.10;99.90;;;;;;5047897;28;20303;-67
2023/01/22 12:02:10;;;;;;;17.87;10.90;;;2.20;99.90;;;;;;5048454;28;20236;-68
2023/01/22 12:05:03;;;;;;;23.33;12.33;;;2.20;99.90;;;;;;5047281;28;20215;-68
2023/01/22 12:08:00;;;;;;;18.53;11.73;;;2.20;99.90;;;;;;5045120;28;20246;-67
2023/01/22 12:10:49;;;;;;;20.17;11.90;;;2.30;99.90;;;;;;5042335;28;20215;-67
2023/01/22 12:13:26;;;;;;;18.00;11.57;;;2.40;99.90;;;;;;5041513;28;20295;-67
2023/01/22 12:16:12;;;;;;;16.57;10.83;;;2.50;99.90;;;;;;5044739;28;20197;-68
2023/01/22 12:18:42;;;;;;;17.53;11.20;;;2.50;99.90;;;;;;5029680;28;20242;-68
2023/01/22 12:21:26;;;;;;;16.27;10.50;;;2.60;99.90;;;;;;5026691;28;20211;-68
2023/01/22 12:24:01;;;;;;;17.47;10.83;;;2.60;99.90;;;;;;5048863;28;20217;-68
2023/01/22 12:26:35;;;;;;;18.07;11.07;;;2.70;99.90;;;;;;5041635;28;20306;-68
2023/01/22 12:29:12;;;;;;;18.63;12.10;;;2.80;99.90;;;;;;5039003;28;20212;-67
2023/01/22 12:31:49;;;;;;;16.13;10.93;;;2.80;99.90;;;;;;5049602;28;20230;-68
2023/01/22 12:34:25;;;;;;;19.40;10.87;;;2.90;99.90;;;;;;5036114;28;20209;-68
2023/01/22 12:36:54;;;;;;;17.23;11.00;;;2.90;99.90;;;;;;5048187;28;20202;-68
2023/01/22 12:39:33;;;;;;;15.30;10.67;;;2.90;99.90;;;;;;5044761;28;20208;-68
2023/01/22 12:42:08;;;;;;;16.73;11.03;;;2.90;99.90;;;;;;5023543;28;20263;-68
2023/01/22 12:44:54;;;;;;;18.27;11.40;;;2.90;99.90;;;;;;5049249;28;20265;-68
2023/01/22 12:47:28;;;;;;;19.93;11.27;;;2.90;99.90;;;;;;5043403;28;20235;-68
2023/01/22 12:49:55;;;;;;;19.73;11.47;;;2.80;99.90;;;;;;5046519;28;20653;-67
2023/01/22 12:52:35;;;;;;;20.77;12.23;;;2.80;99.90;;;;;;5044248;28;20224;-67
2023/01/22 12:55:42;;;;;;;18.60;11.20;;;2.80;99.90;;;;;;5042574;28;20296;-68
2023/01/22 12:58:21;;;;;;;18.40;11.40;;;2.80;99.90;;;;;;5045854;28;20255;-68